GEML

Melilla Airport

Melilla, Spain
TAF GEML 221400Z 2215/2315 09009KT 9999 SCT015 TX28/2312Z TN19/2301Z PROB40 TEMPO 2222/2311 BKN009
Issued Valid From Valid To
Sep-22 @ 14:00 UTC
(2 hours ago)
Sep-22 @ 15:00 UTC
(42 minutes ago)
Sep-23 @ 15:00 UTC
(in 23 hours)
to
to
TAF GEML 221400Z 2215/2315 09009KT 9999 SCT015 TX28/2312Z TN19/2301Z PROB40 TEMPO 2222/2311 BKN009
Issued Sep-22 @ 14:00 UTC
(2 hours ago)
Valid From Sep-22 @ 15:00 UTC
(42 minutes ago)
Valid To Sep-23 @ 15:00 UTC
(in 23 hours)
-
-